createdAt,value
2023-03-22T00:06:10.660Z,1015.17
2023-03-22T00:34:31.752Z,1015.09
2023-03-22T01:03:12.063Z,1014.76
2023-03-22T01:31:52.506Z,1014.4
2023-03-22T02:00:46.002Z,1014.34
2023-03-22T02:29:34.185Z,1014.2
2023-03-22T02:58:35.117Z,1014.13
2023-03-22T03:27:30.991Z,1014.17
2023-03-22T03:56:23.096Z,1014.26
2023-03-22T04:24:54.236Z,1014.23
2023-03-22T04:53:49.113Z,1013.97
2023-03-22T05:22:36.509Z,1013.86
2023-03-22T05:51:35.342Z,1013.98
2023-03-22T06:20:21.079Z,1014.07
2023-03-22T06:49:04.976Z,1014.2
2023-03-22T07:18:17.051Z,1013.84
2023-03-22T07:46:49.985Z,1013.81
2023-03-22T08:15:44.674Z,1014.06
2023-03-22T08:44:19.377Z,1013.72
2023-03-22T09:12:55.730Z,1013.67
2023-03-22T09:41:41.889Z,1013.38
2023-03-22T10:10:36.749Z,1013.09
2023-03-22T10:39:06.258Z,1013.05
2023-03-22T11:07:41.095Z,1012.76
2023-03-22T11:36:14.940Z,1012.49
2023-03-22T12:04:45.934Z,1012.26
2023-03-22T12:33:19.679Z,1011.88
2023-03-22T13:01:47.020Z,1011.54
2023-03-22T13:30:34.060Z,1011.22
2023-03-22T13:59:44.533Z,1010.91
2023-03-22T14:56:08.151Z,1010.45
2023-03-22T15:24:53.796Z,1010.24
2023-03-22T15:53:26.536Z,1010.23
2023-03-22T16:50:21.775Z,1010.32
2023-03-22T17:18:45.540Z,1010.34
2023-03-22T17:47:45.510Z,1010.63
2023-03-22T18:15:49.318Z,1010.73
2023-03-22T18:44:25.334Z,1010.7
2023-03-22T19:13:05.293Z,1010.86
2023-03-22T20:10:00.533Z,1010.94
2023-03-22T20:38:45.765Z,1011.1
2023-03-22T21:07:33.572Z,1011.54
2023-03-22T21:36:05.998Z,1011.43
2023-03-22T22:04:54.604Z,1011.45
2023-03-22T22:33:43.186Z,1011.49
2023-03-22T23:02:22.107Z,1011.3
2023-03-22T23:31:10.302Z,1010.87
2023-03-22T23:59:53.244Z,1010.42
